sensor_id;sensor_type;location;lat;lon;timestamp;pressure;altitude;pressure_sealevel;temperature;humidity
15646;BME280;7922;43.622;1.476;2023-03-25T00:01:16;100645.72;;;10.08;81.95
15646;BME280;7922;43.622;1.476;2023-03-25T00:03:42;100678.09;;;10.16;82.29
15646;BME280;7922;43.622;1.476;2023-03-25T00:06:09;100614.63;;;9.85;81.82
15646;BME280;7922;43.622;1.476;2023-03-25T00:08:35;100595.59;;;9.72;82.07
15646;BME280;7922;43.622;1.476;2023-03-25T00:11:02;100607.78;;;9.78;82.25
15646;BME280;7922;43.622;1.476;2023-03-25T00:13:27;100673.69;;;10.17;82.72
15646;BME280;7922;43.622;1.476;2023-03-25T00:15:53;100638.25;;;9.91;82.33
15646;BME280;7922;43.622;1.476;2023-03-25T00:18:19;100573.31;;;9.50;82.50
15646;BME280;7922;43.622;1.476;2023-03-25T00:20:47;100678.41;;;10.05;82.58
15646;BME280;7922;43.622;1.476;2023-03-25T00:23:13;100662.69;;;10.01;82.21
15646;BME280;7922;43.622;1.476;2023-03-25T00:25:38;100686.34;;;10.07;82.67
15646;BME280;7922;43.622;1.476;2023-03-25T00:28:04;100690.78;;;10.06;82.49
15646;BME280;7922;43.622;1.476;2023-03-25T00:30:29;100714.94;;;10.25;82.41
15646;BME280;7922;43.622;1.476;2023-03-25T00:32:54;100664.28;;;10.06;81.73
15646;BME280;7922;43.622;1.476;2023-03-25T00:35:20;100681.41;;;10.24;81.69
15646;BME280;7922;43.622;1.476;2023-03-25T00:37:47;100653.63;;;10.09;81.24
15646;BME280;7922;43.622;1.476;2023-03-25T00:40:13;100685.69;;;10.30;81.07
15646;BME280;7922;43.622;1.476;2023-03-25T00:42:39;100612.63;;;9.93;80.90
15646;BME280;7922;43.622;1.476;2023-03-25T00:45:04;100683.03;;;10.30;80.81
15646;BME280;7922;43.622;1.476;2023-03-25T00:47:30;100607.47;;;9.88;80.29
15646;BME280;7922;43.622;1.476;2023-03-25T00:49:55;100637.06;;;10.01;80.44
15646;BME280;7922;43.622;1.476;2023-03-25T00:52:20;100707.16;;;10.49;79.90
15646;BME280;7922;43.622;1.476;2023-03-25T00:54:46;100640.31;;;10.11;79.22
15646;BME280;7922;43.622;1.476;2023-03-25T00:57:11;100702.84;;;10.46;79.39
15646;BME280;7922;43.622;1.476;2023-03-25T00:59:36;100682.69;;;10.42;79.25
15646;BME280;7922;43.622;1.476;2023-03-25T01:02:01;100617.50;;;10.07;79.08
15646;BME280;7922;43.622;1.476;2023-03-25T01:04:27;100710.41;;;10.58;78.29
15646;BME280;7922;43.622;1.476;2023-03-25T01:06:52;100709.72;;;10.53;78.32
15646;BME280;7922;43.622;1.476;2023-03-25T01:09:18;100700.09;;;10.49;78.30
15646;BME280;7922;43.622;1.476;2023-03-25T01:11:45;100670.63;;;10.32;78.21
15646;BME280;7922;43.622;1.476;2023-03-25T01:14:17;100657.47;;;10.29;78.09
15646;BME280;7922;43.622;1.476;2023-03-25T01:16:43;100717.34;;;10.63;77.34
15646;BME280;7922;43.622;1.476;2023-03-25T01:19:09;100652.22;;;10.27;76.86
15646;BME280;7922;43.622;1.476;2023-03-25T01:21:34;100691.00;;;10.58;77.35
15646;BME280;7922;43.622;1.476;2023-03-25T01:24:00;100711.63;;;10.76;77.11
15646;BME280;7922;43.622;1.476;2023-03-25T01:26:25;100685.53;;;10.64;76.73
15646;BME280;7922;43.622;1.476;2023-03-25T01:28:50;100603.81;;;10.22;76.49
15646;BME280;7922;43.622;1.476;2023-03-25T01:31:15;100709.59;;;10.84;75.99
15646;BME280;7922;43.622;1.476;2023-03-25T01:33:41;100677.38;;;10.70;75.85
15646;BME280;7922;43.622;1.476;2023-03-25T01:36:07;100700.69;;;10.87;75.36
15646;BME280;7922;43.622;1.476;2023-03-25T01:38:33;100627.06;;;10.42;75.45
15646;BME280;7922;43.622;1.476;2023-03-25T01:40:58;100684.06;;;10.82;75.75
15646;BME280;7922;43.622;1.476;2023-03-25T01:43:23;100678.81;;;10.80;75.36
15646;BME280;7922;43.622;1.476;2023-03-25T01:45:49;100697.09;;;10.90;74.83
15646;BME280;7922;43.622;1.476;2023-03-25T01:48:31;100604.13;;;10.41;75.38
15646;BME280;7922;43.622;1.476;2023-03-25T01:51:02;100649.41;;;10.62;75.32
15646;BME280;7922;43.622;1.476;2023-03-25T01:53:30;100658.22;;;10.62;75.13
15646;BME280;7922;43.622;1.476;2023-03-25T01:55:56;100670.41;;;10.68;75.47
15646;BME280;7922;43.622;1.476;2023-03-25T01:58:24;100669.38;;;10.72;75.14
15646;BME280;7922;43.622;1.476;2023-03-25T02:00:50;100639.22;;;10.48;75.17
15646;BME280;7922;43.622;1.476;2023-03-25T02:03:17;100618.63;;;10.29;75.97
15646;BME280;7922;43.622;1.476;2023-03-25T02:08:22;100572.66;;;10.02;75.08
15646;BME280;7922;43.622;1.476;2023-03-25T02:10:49;100676.69;;;10.64;74.79
15646;BME280;7922;43.622;1.476;2023-03-25T02:13:15;100663.75;;;10.54;75.13
15646;BME280;7922;43.622;1.476;2023-03-25T02:16:04;100599.66;;;10.13;75.67
15646;BME280;7922;43.622;1.476;2023-03-25T02:18:54;100690.25;;;10.54;75.07
15646;BME280;7922;43.622;1.476;2023-03-25T02:21:28;100686.91;;;10.48;75.61
15646;BME280;7922;43.622;1.476;2023-03-25T02:27:01;100683.81;;;10.33;76.00
15646;BME280;7922;43.622;1.476;2023-03-25T02:29:54;100660.44;;;10.17;76.05
15646;BME280;7922;43.622;1.476;2023-03-25T02:35:36;100640.91;;;9.91;76.94
15646;BME280;7922;43.622;1.476;2023-03-25T02:41:15;100643.53;;;9.91;76.90
15646;BME280;7922;43.622;1.476;2023-03-25T02:46:17;100609.19;;;9.60;77.57
15646;BME280;7922;43.622;1.476;2023-03-25T02:48:46;100667.47;;;9.88;77.57
15646;BME280;7922;43.622;1.476;2023-03-25T02:51:19;100651.84;;;9.79;78.15
15646;BME280;7922;43.622;1.476;2023-03-25T02:53:47;100629.41;;;9.62;78.68
15646;BME280;7922;43.622;1.476;2023-03-25T02:56:15;100625.34;;;9.49;79.19
15646;BME280;7922;43.622;1.476;2023-03-25T02:58:43;100635.88;;;9.51;79.36
15646;BME280;7922;43.622;1.476;2023-03-25T03:01:09;100565.00;;;9.00;80.21
15646;BME280;7922;43.622;1.476;2023-03-25T03:03:35;100637.16;;;9.36;80.04
15646;BME280;7922;43.622;1.476;2023-03-25T03:06:01;100535.69;;;8.76;80.03
15646;BME280;7922;43.622;1.476;2023-03-25T03:11:19;100576.44;;;9.00;80.36
15646;BME280;7922;43.622;1.476;2023-03-25T03:21:59;100668.25;;;9.60;80.47
15646;BME280;7922;43.622;1.476;2023-03-25T03:24:32;100584.78;;;9.18;80.00
15646;BME280;7922;43.622;1.476;2023-03-25T03:27:13;100652.50;;;9.56;80.12
15646;BME280;7922;43.622;1.476;2023-03-25T03:29:56;100647.16;;;9.57;79.98
15646;BME280;7922;43.622;1.476;2023-03-25T03:32:59;100674.06;;;9.73;80.38
15646;BME280;7922;43.622;1.476;2023-03-25T03:35:32;100659.53;;;9.57;80.37
15646;BME280;7922;43.622;1.476;2023-03-25T03:38:05;100551.09;;;8.93;80.36
15646;BME280;7922;43.622;1.476;2023-03-25T03:40:35;100657.72;;;9.59;80.78
15646;BME280;7922;43.622;1.476;2023-03-25T03:43:04;100658.56;;;9.59;80.58
15646;BME280;7922;43.622;1.476;2023-03-25T03:45:38;100677.59;;;9.72;80.61
15646;BME280;7922;43.622;1.476;2023-03-25T03:48:11;100689.84;;;9.76;80.41
15646;BME280;7922;43.622;1.476;2023-03-25T03:50:43;100646.44;;;9.52;80.10
15646;BME280;7922;43.622;1.476;2023-03-25T03:53:23;100599.56;;;9.26;79.91
15646;BME280;7922;43.622;1.476;2023-03-25T03:56:12;100592.50;;;9.27;80.21
15646;BME280;7922;43.622;1.476;2023-03-25T03:58:41;100611.56;;;9.38;80.65
15646;BME280;7922;43.622;1.476;2023-03-25T04:01:21;100613.22;;;9.42;81.20
15646;BME280;7922;43.622;1.476;2023-03-25T04:03:53;100667.28;;;9.63;81.20
15646;BME280;7922;43.622;1.476;2023-03-25T04:06:25;100652.53;;;9.54;81.64
15646;BME280;7922;43.622;1.476;2023-03-25T04:11:53;100544.00;;;8.95;81.25
15646;BME280;7922;43.622;1.476;2023-03-25T04:14:20;100633.28;;;9.49;81.81
15646;BME280;7922;43.622;1.476;2023-03-25T04:16:46;100634.28;;;9.45;82.27
15646;BME280;7922;43.622;1.476;2023-03-25T04:19:11;100643.88;;;9.49;81.72
15646;BME280;7922;43.622;1.476;2023-03-25T04:21:36;100645.66;;;9.49;81.96
15646;BME280;7922;43.622;1.476;2023-03-25T04:24:02;100674.31;;;9.64;81.45
15646;BME280;7922;43.622;1.476;2023-03-25T04:26:28;100646.44;;;9.52;82.15
15646;BME280;7922;43.622;1.476;2023-03-25T04:28:54;100684.66;;;9.73;82.16
15646;BME280;7922;43.622;1.476;2023-03-25T04:31:19;100652.59;;;9.53;81.97
15646;BME280;7922;43.622;1.476;2023-03-25T04:33:44;100633.56;;;9.38;82.52
15646;BME280;7922;43.622;1.476;2023-03-25T04:36:10;100613.59;;;9.28;82.15
15646;BME280;7922;43.622;1.476;2023-03-25T04:38:35;100659.66;;;9.52;82.37
15646;BME280;7922;43.622;1.476;2023-03-25T04:41:00;100592.78;;;9.14;82.60
15646;BME280;7922;43.622;1.476;2023-03-25T04:43:26;100662.25;;;9.54;82.64
15646;BME280;7922;43.622;1.476;2023-03-25T04:45:51;100605.91;;;9.19;82.52
15646;BME280;7922;43.622;1.476;2023-03-25T04:48:28;100600.56;;;9.21;82.14
15646;BME280;7922;43.622;1.476;2023-03-25T04:50:55;100684.84;;;9.65;82.97
15646;BME280;7922;43.622;1.476;2023-03-25T04:53:21;100662.22;;;9.55;82.47
15646;BME280;7922;43.622;1.476;2023-03-25T04:55:46;100657.03;;;9.51;82.82
15646;BME280;7922;43.622;1.476;2023-03-25T04:58:11;100689.19;;;9.68;82.87
15646;BME280;7922;43.622;1.476;2023-03-25T05:00:36;100697.03;;;9.71;82.89
15646;BME280;7922;43.622;1.476;2023-03-25T05:03:02;100694.41;;;9.71;83.37
15646;BME280;7922;43.622;1.476;2023-03-25T05:05:27;100692.75;;;9.67;83.24
15646;BME280;7922;43.622;1.476;2023-03-25T05:07:54;100640.66;;;9.38;83.37
15646;BME280;7922;43.622;1.476;2023-03-25T05:10:21;100681.41;;;9.62;83.17
15646;BME280;7922;43.622;1.476;2023-03-25T05:12:47;100621.56;;;9.27;83.42
15646;BME280;7922;43.622;1.476;2023-03-25T05:15:13;100658.88;;;9.49;83.40
15646;BME280;7922;43.622;1.476;2023-03-25T05:17:39;100689.34;;;9.62;83.60
15646;BME280;7922;43.622;1.476;2023-03-25T05:20:06;100673.75;;;9.53;83.30
15646;BME280;7922;43.622;1.476;2023-03-25T05:22:31;100627.94;;;9.18;83.30
15646;BME280;7922;43.622;1.476;2023-03-25T05:24:57;100682.63;;;9.50;83.39
15646;BME280;7922;43.622;1.476;2023-03-25T05:27:22;100672.41;;;9.36;83.67
15646;BME280;7922;43.622;1.476;2023-03-25T05:29:47;100696.03;;;9.44;84.09
15646;BME280;7922;43.622;1.476;2023-03-25T05:32:12;100682.03;;;9.39;83.53
15646;BME280;7922;43.622;1.476;2023-03-25T05:34:38;100718.50;;;9.60;83.54
15646;BME280;7922;43.622;1.476;2023-03-25T05:37:04;100725.44;;;9.64;83.86
15646;BME280;7922;43.622;1.476;2023-03-25T05:39:29;100694.13;;;9.49;83.95
15646;BME280;7922;43.622;1.476;2023-03-25T05:41:54;100700.13;;;9.54;83.51
15646;BME280;7922;43.622;1.476;2023-03-25T05:44:19;100673.09;;;9.43;83.50
15646;BME280;7922;43.622;1.476;2023-03-25T05:46:45;100711.56;;;9.56;83.63
15646;BME280;7922;43.622;1.476;2023-03-25T05:49:10;100606.41;;;8.99;83.40
15646;BME280;7922;43.622;1.476;2023-03-25T05:51:35;100713.22;;;9.60;83.47
15646;BME280;7922;43.622;1.476;2023-03-25T05:54:01;100647.09;;;9.28;83.01
15646;BME280;7922;43.622;1.476;2023-03-25T05:56:26;100732.22;;;9.75;83.24
15646;BME280;7922;43.622;1.476;2023-03-25T05:58:51;100676.72;;;9.40;83.70
15646;BME280;7922;43.622;1.476;2023-03-25T06:01:18;100739.31;;;9.73;83.96
15646;BME280;7922;43.622;1.476;2023-03-25T06:03:44;100724.81;;;9.55;84.30
15646;BME280;7922;43.622;1.476;2023-03-25T06:06:13;100713.34;;;9.56;83.97
15646;BME280;7922;43.622;1.476;2023-03-25T06:08:42;100694.25;;;9.43;84.12
15646;BME280;7922;43.622;1.476;2023-03-25T06:11:11;100709.06;;;9.50;84.26
15646;BME280;7922;43.622;1.476;2023-03-25T06:13:36;100663.03;;;9.25;84.02
15646;BME280;7922;43.622;1.476;2023-03-25T06:16:01;100685.53;;;9.41;84.13
15646;BME280;7922;43.622;1.476;2023-03-25T06:18:27;100737.66;;;9.69;84.23
15646;BME280;7922;43.622;1.476;2023-03-25T06:20:52;100751.53;;;9.78;84.22
15646;BME280;7922;43.622;1.476;2023-03-25T06:23:17;100734.81;;;9.76;83.81
15646;BME280;7922;43.622;1.476;2023-03-25T06:25:43;100750.38;;;9.88;83.63
15646;BME280;7922;43.622;1.476;2023-03-25T06:28:08;100691.03;;;9.66;83.55
15646;BME280;7922;43.622;1.476;2023-03-25T06:30:33;100723.91;;;9.88;82.60
15646;BME280;7922;43.622;1.476;2023-03-25T06:32:59;100710.53;;;9.93;82.53
15646;BME280;7922;43.622;1.476;2023-03-25T06:35:24;100731.47;;;10.02;82.09
15646;BME280;7922;43.622;1.476;2023-03-25T06:37:49;100705.25;;;9.93;81.55
15646;BME280;7922;43.622;1.476;2023-03-25T06:40:14;100710.25;;;10.04;80.78
15646;BME280;7922;43.622;1.476;2023-03-25T06:42:40;100739.50;;;10.30;79.81
15646;BME280;7922;43.622;1.476;2023-03-25T06:45:06;100756.78;;;10.44;79.98
15646;BME280;7922;43.622;1.476;2023-03-25T06:47:32;100760.91;;;10.54;79.37
15646;BME280;7922;43.622;1.476;2023-03-25T06:49:57;100748.69;;;10.48;78.58
15646;BME280;7922;43.622;1.476;2023-03-25T06:52:23;100701.72;;;10.24;75.68
15646;BME280;7922;43.622;1.476;2023-03-25T06:54:48;100756.91;;;10.69;74.66
15646;BME280;7922;43.622;1.476;2023-03-25T06:57:13;100759.81;;;10.89;73.67
15646;BME280;7922;43.622;1.476;2023-03-25T06:59:39;100707.28;;;10.74;72.71
15646;BME280;7922;43.622;1.476;2023-03-25T07:02:04;100745.41;;;11.24;69.84
15646;BME280;7922;43.622;1.476;2023-03-25T07:04:29;100688.31;;;11.14;69.33
15646;BME280;7922;43.622;1.476;2023-03-25T07:06:54;100743.31;;;11.61;68.94
15646;BME280;7922;43.622;1.476;2023-03-25T07:09:20;100683.97;;;11.38;67.07
15646;BME280;7922;43.622;1.476;2023-03-25T07:11:45;100731.41;;;11.72;66.05
15646;BME280;7922;43.622;1.476;2023-03-25T07:14:10;100746.44;;;11.73;65.58
15646;BME280;7922;43.622;1.476;2023-03-25T07:16:36;100733.94;;;11.75;65.47
15646;BME280;7922;43.622;1.476;2023-03-25T07:19:01;100764.22;;;11.96;65.43
15646;BME280;7922;43.622;1.476;2023-03-25T07:21:26;100765.94;;;12.22;64.31
15646;BME280;7922;43.622;1.476;2023-03-25T07:23:52;100750.56;;;12.31;63.63
15646;BME280;7922;43.622;1.476;2023-03-25T07:26:17;100772.13;;;12.46;63.25
15646;BME280;7922;43.622;1.476;2023-03-25T07:28:43;100751.63;;;12.50;63.39
15646;BME280;7922;43.622;1.476;2023-03-25T07:31:13;100734.16;;;12.66;62.30
15646;BME280;7922;43.622;1.476;2023-03-25T07:33:38;100666.06;;;12.40;60.92
15646;BME280;7922;43.622;1.476;2023-03-25T07:36:05;100756.47;;;13.30;60.44
15646;BME280;7922;43.622;1.476;2023-03-25T07:38:31;100759.72;;;13.58;59.21
15646;BME280;7922;43.622;1.476;2023-03-25T07:40:57;100700.69;;;13.48;57.48
15646;BME280;7922;43.622;1.476;2023-03-25T07:43:22;100755.66;;;13.90;56.93
15646;BME280;7922;43.622;1.476;2023-03-25T07:45:47;100773.69;;;14.04;56.37
15646;BME280;7922;43.622;1.476;2023-03-25T07:48:13;100751.91;;;14.15;55.88
15646;BME280;7922;43.622;1.476;2023-03-25T07:50:38;100766.97;;;14.55;55.12
15646;BME280;7922;43.622;1.476;2023-03-25T07:53:04;100737.13;;;14.08;54.65
15646;BME280;7922;43.622;1.476;2023-03-25T07:55:29;100732.97;;;14.21;54.59
15646;BME280;7922;43.622;1.476;2023-03-25T07:57:54;100751.53;;;14.43;54.01
15646;BME280;7922;43.622;1.476;2023-03-25T08:00:20;100749.19;;;13.96;54.76
15646;BME280;7922;43.622;1.476;2023-03-25T08:02:45;100692.19;;;14.00;55.23
15646;BME280;7922;43.622;1.476;2023-03-25T08:05:10;100746.75;;;14.31;55.08
15646;BME280;7922;43.622;1.476;2023-03-25T08:07:36;100726.13;;;14.15;55.58
15646;BME280;7922;43.622;1.476;2023-03-25T08:10:01;100710.25;;;14.12;55.13
15646;BME280;7922;43.622;1.476;2023-03-25T08:12:26;100728.91;;;13.73;54.54
15646;BME280;7922;43.622;1.476;2023-03-25T08:14:53;100688.78;;;13.37;55.70
15646;BME280;7922;43.622;1.476;2023-03-25T08:17:18;100705.34;;;13.64;56.08
15646;BME280;7922;43.622;1.476;2023-03-25T08:19:43;100738.94;;;14.07;55.46
15646;BME280;7922;43.622;1.476;2023-03-25T08:22:09;100767.97;;;14.13;55.90
15646;BME280;7922;43.622;1.476;2023-03-25T08:24:34;100705.84;;;13.92;56.04
15646;BME280;7922;43.622;1.476;2023-03-25T08:26:59;100680.81;;;13.76;54.49
15646;BME280;7922;43.622;1.476;2023-03-25T08:29:26;100728.19;;;13.69;54.41
15646;BME280;7922;43.622;1.476;2023-03-25T08:31:51;100694.94;;;13.78;54.41
15646;BME280;7922;43.622;1.476;2023-03-25T08:34:19;100768.88;;;14.33;54.76
15646;BME280;7922;43.622;1.476;2023-03-25T08:36:45;100693.94;;;13.60;54.28
15646;BME280;7922;43.622;1.476;2023-03-25T08:39:11;100739.34;;;13.78;55.26
15646;BME280;7922;43.622;1.476;2023-03-25T08:41:37;100727.19;;;14.11;55.32
15646;BME280;7922;43.622;1.476;2023-03-25T08:44:02;100747.47;;;13.95;54.79
15646;BME280;7922;43.622;1.476;2023-03-25T08:46:27;100714.50;;;13.97;55.65
15646;BME280;7922;43.622;1.476;2023-03-25T08:48:52;100741.69;;;14.06;55.21
15646;BME280;7922;43.622;1.476;2023-03-25T08:51:18;100727.50;;;13.85;55.20
15646;BME280;7922;43.622;1.476;2023-03-25T08:53:43;100722.47;;;14.18;55.13
15646;BME280;7922;43.622;1.476;2023-03-25T08:56:08;100653.53;;;13.91;54.72
15646;BME280;7922;43.622;1.476;2023-03-25T08:58:34;100670.41;;;13.90;55.09
15646;BME280;7922;43.622;1.476;2023-03-25T09:00:59;100732.22;;;14.38;54.93
15646;BME280;7922;43.622;1.476;2023-03-25T09:03:24;100744.88;;;14.33;54.87
15646;BME280;7922;43.622;1.476;2023-03-25T09:05:50;100666.13;;;13.88;54.57
15646;BME280;7922;43.622;1.476;2023-03-25T09:08:15;100723.53;;;14.14;55.23
15646;BME280;7922;43.622;1.476;2023-03-25T09:10:41;100737.59;;;14.57;55.20
15646;BME280;7922;43.622;1.476;2023-03-25T09:13:06;100740.63;;;14.48;55.25
15646;BME280;7922;43.622;1.476;2023-03-25T09:15:32;100753.50;;;14.58;55.75
15646;BME280;7922;43.622;1.476;2023-03-25T09:17:57;100738.28;;;14.02;56.79
15646;BME280;7922;43.622;1.476;2023-03-25T09:20:23;100696.16;;;14.10;56.48
15646;BME280;7922;43.622;1.476;2023-03-25T09:22:48;100741.41;;;14.51;56.03
15646;BME280;7922;43.622;1.476;2023-03-25T09:25:14;100718.66;;;14.24;56.20
15646;BME280;7922;43.622;1.476;2023-03-25T09:27:39;100706.38;;;14.19;56.24
15646;BME280;7922;43.622;1.476;2023-03-25T09:30:06;100650.09;;;13.69;57.13
15646;BME280;7922;43.622;1.476;2023-03-25T09:32:31;100640.22;;;13.91;56.36
15646;BME280;7922;43.622;1.476;2023-03-25T09:34:56;100699.06;;;14.25;57.27
15646;BME280;7922;43.622;1.476;2023-03-25T09:37:22;100699.34;;;14.37;55.82
15646;BME280;7922;43.622;1.476;2023-03-25T09:39:47;100708.94;;;14.41;56.00
15646;BME280;7922;43.622;1.476;2023-03-25T09:45:05;100719.06;;;14.54;56.26
15646;BME280;7922;43.622;1.476;2023-03-25T09:47:38;100643.75;;;14.11;56.47
15646;BME280;7922;43.622;1.476;2023-03-25T09:50:10;100711.19;;;14.69;56.08
15646;BME280;7922;43.622;1.476;2023-03-25T09:55:21;100712.94;;;14.71;55.98
15646;BME280;7922;43.622;1.476;2023-03-25T09:57:50;100710.31;;;14.88;56.44
15646;BME280;7922;43.622;1.476;2023-03-25T10:00:22;100647.44;;;14.65;56.27
15646;BME280;7922;43.622;1.476;2023-03-25T10:02:55;100704.53;;;14.97;55.41
15646;BME280;7922;43.622;1.476;2023-03-25T10:10:39;100649.63;;;14.74;55.19
15646;BME280;7922;43.622;1.476;2023-03-25T10:15:55;100652.28;;;14.57;54.99
15646;BME280;7922;43.622;1.476;2023-03-25T10:20:54;100711.72;;;15.49;54.10
15646;BME280;7922;43.622;1.476;2023-03-25T10:23:42;100644.25;;;15.10;53.78
15646;BME280;7922;43.622;1.476;2023-03-25T10:28:53;100629.19;;;14.75;53.87
15646;BME280;7922;43.622;1.476;2023-03-25T10:31:23;100609.34;;;14.98;53.51
15646;BME280;7922;43.622;1.476;2023-03-25T10:33:53;100667.59;;;15.24;53.63
15646;BME280;7922;43.622;1.476;2023-03-25T10:36:31;100602.69;;;14.89;53.20
15646;BME280;7922;43.622;1.476;2023-03-25T10:38:58;100643.78;;;15.72;52.00
15646;BME280;7922;43.622;1.476;2023-03-25T10:41:33;100622.66;;;15.50;52.30
15646;BME280;7922;43.622;1.476;2023-03-25T10:43:59;100668.53;;;15.58;52.82
15646;BME280;7922;43.622;1.476;2023-03-25T10:46:42;100599.81;;;15.61;52.32
15646;BME280;7922;43.622;1.476;2023-03-25T10:49:10;100641.81;;;15.75;52.17
15646;BME280;7922;43.622;1.476;2023-03-25T10:51:35;100648.72;;;15.79;51.46
15646;BME280;7922;43.622;1.476;2023-03-25T10:54:01;100633.97;;;15.72;51.30
15646;BME280;7922;43.622;1.476;2023-03-25T10:56:40;100619.28;;;15.46;52.09
15646;BME280;7922;43.622;1.476;2023-03-25T10:59:29;100613.31;;;15.58;51.55
15646;BME280;7922;43.622;1.476;2023-03-25T11:01:56;100631.53;;;16.01;51.85
15646;BME280;7922;43.622;1.476;2023-03-25T11:04:28;100638.91;;;16.13;51.36
15646;BME280;7922;43.622;1.476;2023-03-25T11:06:56;100661.41;;;16.09;52.02
15646;BME280;7922;43.622;1.476;2023-03-25T11:09:28;100604.00;;;15.83;51.42
15646;BME280;7922;43.622;1.476;2023-03-25T11:11:53;100660.34;;;15.78;51.97
15646;BME280;7922;43.622;1.476;2023-03-25T11:14:23;100632.50;;;16.16;51.68
15646;BME280;7922;43.622;1.476;2023-03-25T11:17:02;100653.13;;;16.29;51.64
15646;BME280;7922;43.622;1.476;2023-03-25T11:19:55;100634.91;;;16.04;52.05
15646;BME280;7922;43.622;1.476;2023-03-25T11:22:25;100652.00;;;16.65;50.95
15646;BME280;7922;43.622;1.476;2023-03-25T11:24:57;100618.94;;;16.66;50.72
15646;BME280;7922;43.622;1.476;2023-03-25T11:27:26;100599.47;;;16.64;50.62
15646;BME280;7922;43.622;1.476;2023-03-25T11:29:55;100609.72;;;16.72;50.35
15646;BME280;7922;43.622;1.476;2023-03-25T11:32:36;100616.41;;;17.11;49.58
15646;BME280;7922;43.622;1.476;2023-03-25T11:35:17;100578.78;;;16.98;48.60
15646;BME280;7922;43.622;1.476;2023-03-25T11:37:54;100532.38;;;16.37;49.13
15646;BME280;7922;43.622;1.476;2023-03-25T11:40:20;100584.78;;;16.71;50.12
15646;BME280;7922;43.622;1.476;2023-03-25T11:42:51;100569.56;;;16.88;50.21
15646;BME280;7922;43.622;1.476;2023-03-25T11:45:35;100568.59;;;17.04;49.75
15646;BME280;7922;43.622;1.476;2023-03-25T11:48:09;100568.34;;;17.52;50.46
15646;BME280;7922;43.622;1.476;2023-03-25T11:50:34;100567.25;;;17.85;49.26
15646;BME280;7922;43.622;1.476;2023-03-25T11:53:01;100510.47;;;16.46;48.84
15646;BME280;7922;43.622;1.476;2023-03-25T11:55:29;100545.72;;;16.99;48.92
15646;BME280;7922;43.622;1.476;2023-03-25T11:57:57;100563.94;;;16.78;49.19
15646;BME280;7922;43.622;1.476;2023-03-25T12:03:20;100543.25;;;17.10;48.81
15646;BME280;7922;43.622;1.476;2023-03-25T12:06:05;100557.94;;;16.73;48.90
15646;BME280;7922;43.622;1.476;2023-03-25T12:08:42;100552.34;;;16.61;49.49
15646;BME280;7922;43.622;1.476;2023-03-25T12:11:13;100532.72;;;16.93;49.46
15646;BME280;7922;43.622;1.476;2023-03-25T12:19:19;100501.56;;;17.20;48.63
15646;BME280;7922;43.622;1.476;2023-03-25T12:42:59;100502.06;;;17.27;48.17
15646;BME280;7922;43.622;1.476;2023-03-25T13:07:19;100427.59;;;17.61;45.89
15646;BME280;7922;43.622;1.476;2023-03-25T13:09:52;100437.41;;;17.47;44.81
15646;BME280;7922;43.622;1.476;2023-03-25T13:17:36;100403.03;;;17.95;44.68
15646;BME280;7922;43.622;1.476;2023-03-25T13:20:04;100386.69;;;17.86;44.33
15646;BME280;7922;43.622;1.476;2023-03-25T13:22:33;100396.66;;;18.11;44.01
15646;BME280;7922;43.622;1.476;2023-03-25T13:25:02;100401.00;;;17.99;44.06
15646;BME280;7922;43.622;1.476;2023-03-25T13:27:33;100381.78;;;17.92;43.21
15646;BME280;7922;43.622;1.476;2023-03-25T13:30:00;100399.25;;;17.85;43.70
15646;BME280;7922;43.622;1.476;2023-03-25T13:32:28;100391.97;;;17.87;44.49
15646;BME280;7922;43.622;1.476;2023-03-25T13:35:10;100385.09;;;17.83;44.60
15646;BME280;7922;43.622;1.476;2023-03-25T13:37:40;100362.38;;;17.89;43.91
15646;BME280;7922;43.622;1.476;2023-03-25T13:48:37;100375.63;;;18.95;42.72
15646;BME280;7922;43.622;1.476;2023-03-25T13:51:04;100379.81;;;18.99;43.15
15646;BME280;7922;43.622;1.476;2023-03-25T13:53:41;100369.19;;;18.85;42.58
15646;BME280;7922;43.622;1.476;2023-03-25T13:56:20;100375.38;;;18.60;42.49
15646;BME280;7922;43.622;1.476;2023-03-25T13:59:19;100360.41;;;18.05;43.20
15646;BME280;7922;43.622;1.476;2023-03-25T14:10:15;100328.66;;;16.89;43.98
15646;BME280;7922;43.622;1.476;2023-03-25T14:12:49;100362.47;;;16.90;45.16
15646;BME280;7922;43.622;1.476;2023-03-25T14:15:28;100292.22;;;16.58;45.42
15646;BME280;7922;43.622;1.476;2023-03-25T14:17:55;100340.22;;;16.90;45.96
15646;BME280;7922;43.622;1.476;2023-03-25T14:20:26;100341.94;;;16.91;46.39
15646;BME280;7922;43.622;1.476;2023-03-25T14:22:58;100296.59;;;16.73;45.95
15646;BME280;7922;43.622;1.476;2023-03-25T14:25:31;100328.00;;;17.27;45.43
15646;BME280;7922;43.622;1.476;2023-03-25T14:27:58;100320.25;;;17.37;45.13
15646;BME280;7922;43.622;1.476;2023-03-25T14:30:26;100268.94;;;17.43;44.27
15646;BME280;7922;43.622;1.476;2023-03-25T14:32:56;100278.97;;;17.26;44.22
15646;BME280;7922;43.622;1.476;2023-03-25T14:38:17;100303.75;;;17.16;44.93
15646;BME280;7922;43.622;1.476;2023-03-25T14:40:48;100268.59;;;17.07;45.70
15646;BME280;7922;43.622;1.476;2023-03-25T14:43:25;100331.84;;;17.50;45.61
15646;BME280;7922;43.622;1.476;2023-03-25T14:59:14;100280.31;;;17.73;43.02
15646;BME280;7922;43.622;1.476;2023-03-25T15:01:42;100296.59;;;17.70;43.34
15646;BME280;7922;43.622;1.476;2023-03-25T15:04:12;100294.28;;;17.78;43.20
15646;BME280;7922;43.622;1.476;2023-03-25T15:06:38;100218.81;;;17.85;42.27
15646;BME280;7922;43.622;1.476;2023-03-25T15:09:06;100281.47;;;18.09;42.56
15646;BME280;7922;43.622;1.476;2023-03-25T15:11:34;100213.78;;;17.80;41.65
15646;BME280;7922;43.622;1.476;2023-03-25T15:14:03;100195.19;;;17.64;41.97
15646;BME280;7922;43.622;1.476;2023-03-25T15:19:11;100257.44;;;17.68;43.14
15646;BME280;7922;43.622;1.476;2023-03-25T15:26:59;100226.03;;;18.35;42.11
15646;BME280;7922;43.622;1.476;2023-03-25T15:32:31;100271.03;;;18.68;41.33
15646;BME280;7922;43.622;1.476;2023-03-25T15:37:48;100259.53;;;18.66;40.36
15646;BME280;7922;43.622;1.476;2023-03-25T15:40:27;100211.00;;;18.45;39.98